Time;durP1;ratioP1;P1;durP2;ratioP2;P2;SDS_P1;SDS_P2;PMS_P1;PMS_P2;Temp;Humidity;BMP_temperature;BMP_pressure;BME280_temperature;BME280_humidity;BME280_pressure;Samples;Min_cycle;Max_cycle;Signal;HPM_P1;HPM_P2
2023/01/24 00:00:52;;;;;;;53.47;24.37;;;3.50;99.90;;;;;;5049509;28;20044;-60
2023/01/24 00:03:18;;;;;;;38.53;24.17;;;3.50;99.90;;;;;;5048408;28;20033;-57
2023/01/24 00:05:45;;;;;;;42.42;24.05;;;3.50;99.90;;;;;;5049774;28;20033;-59
2023/01/24 00:08:12;;;;;;;39.53;24.65;;;3.50;99.90;;;;;;5047846;28;20032;-59
2023/01/24 00:10:38;;;;;;;43.22;25.65;;;3.40;99.90;;;;;;5049605;28;20452;-58
2023/01/24 00:13:05;;;;;;;40.20;24.35;;;3.50;99.90;;;;;;5048753;28;20040;-58
2023/01/24 00:15:31;;;;;;;41.47;23.67;;;3.50;99.90;;;;;;5048777;28;20044;-58
2023/01/24 00:17:57;;;;;;;37.35;24.20;;;3.50;99.90;;;;;;5048751;28;20448;-57
2023/01/24 00:20:22;;;;;;;43.23;25.20;;;3.40;99.90;;;;;;5048560;28;20041;-59
2023/01/24 00:22:48;;;;;;;45.87;26.40;;;3.50;99.90;;;;;;5047686;28;20029;-59
2023/01/24 00:25:14;;;;;;;44.00;26.57;;;3.40;99.90;;;;;;5047933;28;20029;-60
2023/01/24 00:27:39;;;;;;;41.72;26.02;;;3.40;99.90;;;;;;5048627;28;20469;-60
2023/01/24 00:30:05;;;;;;;41.07;25.40;;;3.40;99.90;;;;;;5048713;28;20395;-61
2023/01/24 00:32:32;;;;;;;39.85;24.00;;;3.40;99.90;;;;;;5046236;28;20072;-60
2023/01/24 00:34:57;;;;;;;;;;;3.40;99.90;;;;;;5048247;28;20510;-58
2023/01/24 00:37:23;;;;;;;35.10;22.17;;;3.40;99.90;;;;;;5047587;28;19925;-59
2023/01/24 00:39:49;;;;;;;35.50;24.10;;;3.40;99.90;;;;;;5048309;28;20143;-60
2023/01/24 00:42:14;;;;;;;35.73;21.40;;;3.40;99.90;;;;;;5048684;28;20108;-57
2023/01/24 00:44:40;;;;;;;41.53;24.13;;;3.40;99.90;;;;;;5047632;28;20037;-60
2023/01/24 00:47:05;;;;;;;32.83;21.30;;;3.40;99.90;;;;;;5048397;28;20690;-58
2023/01/24 00:49:31;;;;;;;38.57;23.40;;;3.40;99.90;;;;;;5048886;28;20521;-57
2023/01/24 00:51:57;;;;;;;36.80;23.63;;;3.40;99.90;;;;;;5047896;28;20425;-58
2023/01/24 00:54:22;;;;;;;34.37;21.00;;;3.40;99.90;;;;;;5047511;28;20033;-59
2023/01/24 00:56:48;;;;;;;34.17;20.70;;;3.40;99.90;;;;;;5048673;28;20033;-61
2023/01/24 00:59:13;;;;;;;37.97;22.77;;;3.40;99.90;;;;;;5048127;28;20036;-58
2023/01/24 01:01:39;;;;;;;33.10;20.43;;;3.40;99.90;;;;;;5048649;28;20044;-58
2023/01/24 01:04:05;;;;;;;34.57;21.37;;;3.40;99.90;;;;;;5047161;28;20086;-60
2023/01/24 01:06:30;;;;;;;38.73;22.93;;;3.40;99.90;;;;;;5047033;28;20032;-60
2023/01/24 01:08:56;;;;;;;32.40;20.83;;;3.40;99.90;;;;;;5047651;28;20194;-59
2023/01/24 01:11:21;;;;;;;37.17;21.83;;;3.40;99.90;;;;;;5048544;28;20033;-59
2023/01/24 01:13:50;;;;;;;31.43;20.47;;;3.40;99.90;;;;;;5047566;28;20128;-61
2023/01/24 01:16:19;;;;;;;37.60;22.00;;;3.40;99.90;;;;;;5048073;28;20445;-59
2023/01/24 01:18:46;;;;;;;37.08;23.85;;;3.40;99.90;;;;;;5048543;28;20064;-58
2023/01/24 01:21:14;;;;;;;36.97;22.40;;;3.40;99.90;;;;;;5045608;28;20033;-57
2023/01/24 01:23:40;;;;;;;38.80;22.98;;;3.40;99.90;;;;;;5047315;28;20151;-56
2023/01/24 01:26:09;;;;;;;22.45;15.57;;;3.40;99.90;;;;;;5048451;28;20127;-56
2023/01/24 01:28:35;;;;;;;26.20;17.75;;;3.40;99.90;;;;;;5045029;28;20041;-60
2023/01/24 01:31:00;;;;;;;33.47;21.17;;;3.40;99.90;;;;;;5048136;28;20044;-59
2023/01/24 01:33:26;;;;;;;36.37;20.60;;;3.30;99.90;;;;;;5047263;28;20049;-58
2023/01/24 01:35:52;;;;;;;36.77;21.70;;;3.40;99.90;;;;;;5047395;28;20045;-60
2023/01/24 01:38:18;;;;;;;35.92;20.35;;;3.30;99.90;;;;;;5047953;28;20036;-61
2023/01/24 01:40:44;;;;;;;35.72;21.25;;;3.30;99.90;;;;;;5047927;28;20121;-61
2023/01/24 01:43:13;;;;;;;34.47;22.48;;;3.40;99.90;;;;;;5047382;28;20060;-59
2023/01/24 01:45:45;;;;;;;32.38;20.73;;;3.30;99.90;;;;;;5047693;28;20513;-60
2023/01/24 01:48:39;;;;;;;35.60;21.70;;;3.30;99.90;;;;;;5046964;28;20037;-57
2023/01/24 01:51:25;;;;;;;28.15;18.55;;;3.30;99.90;;;;;;5047384;28;20033;-59
2023/01/24 01:53:59;;;;;;;30.67;18.17;;;3.30;99.90;;;;;;5046347;28;20044;-60
2023/01/24 01:56:28;;;;;;;33.33;19.15;;;3.30;99.90;;;;;;5048117;28;20033;-60
2023/01/24 01:58:55;;;;;;;29.63;18.02;;;3.30;99.90;;;;;;5062446;28;20057;-57
2023/01/24 02:01:21;;;;;;;25.25;17.42;;;3.30;99.90;;;;;;5047892;28;20045;-60
2023/01/24 02:03:53;;;;;;;27.10;17.40;;;3.30;99.90;;;;;;5046530;28;20486;-59
2023/01/24 02:06:41;;;;;;;33.35;18.40;;;3.20;99.90;;;;;;5051137;28;20029;-60
2023/01/24 02:09:08;;;;;;;29.02;18.95;;;3.30;99.90;;;;;;5051146;28;20072;-58
2023/01/24 02:11:38;;;;;;;31.65;20.13;;;3.30;99.90;;;;;;5049205;28;20047;-57
2023/01/24 02:16:51;;;;;;;27.17;16.27;;;3.30;99.90;;;;;;5051642;28;20037;-60
2023/01/24 02:19:32;;;;;;;25.77;16.63;;;3.20;99.90;;;;;;5049943;28;20041;-60
2023/01/24 02:22:07;;;;;;;21.23;14.25;;;3.30;99.90;;;;;;5051510;28;20055;-58
2023/01/24 02:24:40;;;;;;;20.58;13.68;;;3.20;99.90;;;;;;5049905;28;20037;-58
2023/01/24 02:27:06;;;;;;;19.63;13.38;;;3.20;99.90;;;;;;5048792;28;20055;-60
2023/01/24 02:29:31;;;;;;;22.23;15.80;;;3.20;99.90;;;;;;5051278;28;20492;-60
2023/01/24 02:32:06;;;;;;;18.95;13.35;;;3.20;99.90;;;;;;5050836;28;20067;-59
2023/01/24 02:34:32;;;;;;;24.23;14.27;;;3.20;99.90;;;;;;5047224;28;20086;-58
2023/01/24 02:37:00;;;;;;;22.70;14.07;;;3.20;99.90;;;;;;5050947;28;20040;-59
2023/01/24 02:39:34;;;;;;;18.23;12.43;;;3.10;99.90;;;;;;5051412;28;20041;-57
2023/01/24 02:42:04;;;;;;;20.70;13.13;;;3.20;99.90;;;;;;5050807;28;20506;-59
2023/01/24 02:44:59;;;;;;;18.88;13.23;;;3.10;99.90;;;;;;5049256;28;20654;-60
2023/01/24 02:47:32;;;;;;;21.27;13.95;;;3.10;99.90;;;;;;5049383;28;20033;-57
2023/01/24 02:49:59;;;;;;;21.13;13.20;;;3.10;99.90;;;;;;5051175;28;20502;-60
2023/01/24 02:55:09;;;;;;;18.92;13.55;;;3.10;99.90;;;;;;5049999;28;20419;-58
2023/01/24 03:00:20;;;;;;;18.33;12.13;;;3.10;99.90;;;;;;5049665;28;20041;-58
2023/01/24 03:02:45;;;;;;;20.70;11.23;;;3.10;99.90;;;;;;5050808;28;20040;-60
2023/01/24 03:05:11;;;;;;;18.23;12.43;;;3.10;99.90;;;;;;5049629;28;20477;-59
2023/01/24 03:07:45;;;;;;;20.00;12.57;;;3.10;99.90;;;;;;5049786;28;20040;-60
2023/01/24 03:10:13;;;;;;;17.70;11.73;;;3.10;99.90;;;;;;5047433;28;20394;-57
2023/01/24 03:34:45;;;;;;;19.02;13.35;;;3.10;99.90;;;;;;5048454;28;20086;-60
2023/01/24 03:37:11;;;;;;;16.97;11.60;;;3.10;99.90;;;;;;5049770;28;20049;-58
2023/01/24 03:42:21;;;;;;;18.83;11.23;;;3.10;99.90;;;;;;5049707;28;20037;-59
2023/01/24 03:44:47;;;;;;;14.73;10.00;;;3.10;99.90;;;;;;5048675;28;20033;-60
2023/01/24 03:47:12;;;;;;;14.43;9.67;;;3.10;99.90;;;;;;5049140;28;20044;-60
2023/01/24 03:52:27;;;;;;;15.60;10.60;;;3.00;99.90;;;;;;5050260;28;20041;-58
2023/01/24 03:54:53;;;;;;;13.80;8.75;;;3.00;99.90;;;;;;5048422;28;20394;-57
2023/01/24 03:57:19;;;;;;;14.50;9.07;;;3.00;99.90;;;;;;5048890;28;20037;-60
2023/01/24 03:59:44;;;;;;;12.43;8.63;;;3.00;99.90;;;;;;5049414;28;20035;-58
2023/01/24 04:02:10;;;;;;;12.20;8.30;;;3.00;99.90;;;;;;5049415;28;20444;-58
2023/01/24 04:07:20;;;;;;;15.23;9.63;;;3.00;99.90;;;;;;5049019;28;20068;-58
2023/01/24 04:09:45;;;;;;;11.93;8.95;;;2.90;99.90;;;;;;5049017;28;20060;-59
2023/01/24 04:12:11;;;;;;;15.97;9.00;;;2.90;99.90;;;;;;5049039;28;20275;-58
2023/01/24 04:14:36;;;;;;;14.13;8.63;;;2.90;99.90;;;;;;5048258;28;20099;-57
2023/01/24 04:17:02;;;;;;;11.60;8.53;;;2.90;99.90;;;;;;5048805;28;20043;-60
2023/01/24 04:19:28;;;;;;;11.90;9.03;;;2.90;99.90;;;;;;5049196;28;20074;-57
2023/01/24 04:21:53;;;;;;;13.23;9.90;;;2.90;99.90;;;;;;5049427;28;20105;-59
2023/01/24 04:24:19;;;;;;;13.13;9.17;;;2.90;99.90;;;;;;5047697;28;20029;-59
2023/01/24 04:26:44;;;;;;;15.23;8.97;;;2.90;99.90;;;;;;5047487;28;20242;-60
2023/01/24 04:29:10;;;;;;;11.73;8.47;;;2.90;99.90;;;;;;5048570;28;20399;-56
2023/01/24 04:31:35;;;;;;;11.97;8.50;;;2.90;99.90;;;;;;5049631;28;20041;-59
2023/01/24 04:34:01;;;;;;;12.23;9.63;;;2.90;99.90;;;;;;5048371;28;20134;-60
2023/01/24 04:36:26;;;;;;;13.20;8.53;;;2.90;99.90;;;;;;5049229;28;20096;-57
2023/01/24 04:38:54;;;;;;;12.67;8.87;;;2.90;99.90;;;;;;5048477;28;20041;-57
2023/01/24 04:41:20;;;;;;;12.70;9.02;;;2.90;99.90;;;;;;5048659;28;20410;-58
2023/01/24 04:43:45;;;;;;;12.73;8.23;;;2.90;99.90;;;;;;5047852;28;20033;-59
2023/01/24 04:46:11;;;;;;;12.63;8.83;;;2.90;99.90;;;;;;5048875;28;20479;-58
2023/01/24 04:48:36;;;;;;;13.27;9.00;;;2.90;99.90;;;;;;5048008;28;20025;-58
2023/01/24 04:51:02;;;;;;;12.60;8.73;;;2.90;99.90;;;;;;5048617;28;20501;-57
2023/01/24 04:53:29;;;;;;;13.10;10.03;;;2.90;99.90;;;;;;5044468;28;20409;-61
2023/01/24 04:56:02;;;;;;;10.80;8.70;;;2.90;99.90;;;;;;5048324;28;20037;-59
2023/01/24 04:58:27;;;;;;;13.43;8.38;;;2.90;99.90;;;;;;5048242;28;20490;-57
2023/01/24 05:00:53;;;;;;;10.77;8.13;;;2.90;99.90;;;;;;5048814;28;20039;-58
2023/01/24 05:03:19;;;;;;;11.63;8.98;;;2.90;99.90;;;;;;5047121;28;20045;-59
2023/01/24 05:05:52;;;;;;;15.73;10.10;;;2.90;99.90;;;;;;5048462;28;20108;-59
2023/01/24 05:08:18;;;;;;;14.98;9.10;;;2.90;99.90;;;;;;5047332;28;20518;-57
2023/01/24 05:10:44;;;;;;;13.60;9.00;;;2.90;99.90;;;;;;5048646;28;20110;-58
2023/01/24 05:13:09;;;;;;;15.68;10.73;;;2.90;99.90;;;;;;5047865;28;20041;-59
2023/01/24 05:15:35;;;;;;;12.53;9.33;;;2.90;99.90;;;;;;5047782;28;20068;-59
2023/01/24 05:18:01;;;;;;;13.63;10.07;;;2.80;99.90;;;;;;5048127;28;20037;-58
2023/01/24 05:20:27;;;;;;;14.48;9.68;;;2.90;99.90;;;;;;5048694;28;20037;-58
2023/01/24 05:22:56;;;;;;;14.88;10.73;;;2.80;99.90;;;;;;5047307;28;20037;-60
2023/01/24 05:25:21;;;;;;;14.38;9.90;;;2.80;99.90;;;;;;5045422;28;20069;-58
2023/01/24 05:27:47;;;;;;;14.43;9.57;;;2.80;99.90;;;;;;5048046;28;20472;-57
2023/01/24 05:30:13;;;;;;;16.40;10.43;;;2.80;99.90;;;;;;5048195;28;20033;-59
2023/01/24 05:32:38;;;;;;;14.00;10.00;;;2.90;99.90;;;;;;5048668;28;20111;-59
2023/01/24 05:35:05;;;;;;;17.23;10.17;;;2.80;99.90;;;;;;5046872;28;20505;-60
2023/01/24 05:37:30;;;;;;;13.23;9.90;;;2.90;99.90;;;;;;5047320;28;20325;-57
2023/01/24 05:39:56;;;;;;;12.87;9.07;;;2.80;99.90;;;;;;5051072;28;20049;-58
2023/01/24 05:42:21;;;;;;;16.43;10.27;;;2.90;99.90;;;;;;5051133;28;20025;-58
2023/01/24 05:44:47;;;;;;;16.83;9.97;;;2.80;99.90;;;;;;5050996;28;20033;-58
2023/01/24 05:47:12;;;;;;;13.63;10.37;;;2.80;99.90;;;;;;5051789;28;20444;-58
2023/01/24 05:49:38;;;;;;;13.33;10.03;;;2.80;99.90;;;;;;5052161;28;20029;-58
2023/01/24 05:52:04;;;;;;;13.40;9.87;;;2.80;99.90;;;;;;5051337;28;20029;-58
2023/01/24 05:54:29;;;;;;;14.17;10.30;;;2.80;99.90;;;;;;5051353;28;20398;-61
2023/01/24 05:56:55;;;;;;;11.50;9.70;;;2.80;99.90;;;;;;5051694;28;20167;-60
2023/01/24 05:59:21;;;;;;;15.23;10.52;;;2.80;99.90;;;;;;5052132;28;20033;-57
2023/01/24 06:01:46;;;;;;;16.57;9.87;;;2.80;99.90;;;;;;5051734;28;20171;-60
2023/01/24 06:04:12;;;;;;;14.23;10.27;;;2.80;99.90;;;;;;5051016;28;20028;-61
2023/01/24 06:06:37;;;;;;;15.73;11.33;;;2.80;99.90;;;;;;5051126;28;20040;-60
2023/01/24 06:09:03;;;;;;;14.30;9.63;;;2.80;99.90;;;;;;5051747;28;20126;-57
2023/01/24 06:11:29;;;;;;;14.70;9.27;;;2.80;99.90;;;;;;5052216;28;20040;-60
2023/01/24 06:13:55;;;;;;;12.77;9.52;;;2.80;99.90;;;;;;5050837;28;20108;-57
2023/01/24 06:16:23;;;;;;;14.20;10.95;;;2.80;99.90;;;;;;5050626;28;20037;-57
2023/01/24 06:18:50;;;;;;;15.18;10.75;;;2.80;99.90;;;;;;5051012;28;20512;-57
2023/01/24 06:21:26;;;;;;;13.10;9.63;;;2.80;99.90;;;;;;5049828;28;20052;-60
2023/01/24 06:23:52;;;;;;;13.95;9.82;;;2.80;99.90;;;;;;5049469;28;20033;-59
2023/01/24 06:26:18;;;;;;;14.88;10.10;;;2.80;99.90;;;;;;5051171;28;20045;-59
2023/01/24 06:28:44;;;;;;;12.75;9.57;;;2.80;99.90;;;;;;5050818;28;20037;-59
2023/01/24 06:31:19;;;;;;;14.68;10.43;;;2.80;99.90;;;;;;5051343;28;20041;-58
2023/01/24 06:34:07;;;;;;;16.30;11.15;;;2.80;99.90;;;;;;5048049;28;20048;-59
2023/01/24 06:36:54;;;;;;;16.25;10.40;;;2.80;99.90;;;;;;5049086;28;20102;-60
2023/01/24 06:39:21;;;;;;;15.13;10.55;;;2.80;99.90;;;;;;5050948;28;20119;-59
2023/01/24 06:41:47;;;;;;;15.75;11.50;;;2.80;99.90;;;;;;5051368;28;20037;-58
2023/01/24 06:44:13;;;;;;;15.75;10.95;;;2.80;99.90;;;;;;5048985;28;20730;-59
2023/01/24 06:46:39;;;;;;;15.15;11.05;;;2.80;99.90;;;;;;5051074;28;20150;-59
2023/01/24 06:49:04;;;;;;;14.33;10.43;;;2.80;99.90;;;;;;5050369;28;20029;-60
2023/01/24 06:51:30;;;;;;;14.87;10.90;;;2.80;99.90;;;;;;5050299;28;20114;-58
2023/01/24 06:53:55;;;;;;;16.70;12.17;;;2.80;99.90;;;;;;5047059;28;20045;-57
2023/01/24 06:56:21;;;;;;;15.67;11.70;;;2.80;99.90;;;;;;5042710;28;20052;-60
2023/01/24 06:58:47;;;;;;;15.63;10.90;;;2.80;99.90;;;;;;5049934;28;20044;-59
2023/01/24 07:01:13;;;;;;;15.48;11.27;;;2.80;99.90;;;;;;5050659;28;20183;-59
2023/01/24 07:03:38;;;;;;;16.63;11.25;;;2.80;99.90;;;;;;5049492;28;20513;-59
2023/01/24 07:06:04;;;;;;;16.13;12.13;;;2.70;99.90;;;;;;5051140;28;20033;-55
2023/01/24 07:08:30;;;;;;;18.00;12.00;;;2.70;99.90;;;;;;5048872;28;21991;-60
2023/01/24 07:10:58;;;;;;;18.60;13.07;;;2.70;99.90;;;;;;5048985;28;20043;-57
2023/01/24 07:13:24;;;;;;;19.58;13.38;;;2.70;99.90;;;;;;5049493;28;20605;-60
2023/01/24 07:15:49;;;;;;;18.50;12.80;;;2.70;99.90;;;;;;5050596;28;20186;-59
2023/01/24 07:18:17;;;;;;;15.27;11.63;;;2.60;99.90;;;;;;5050185;28;20045;-60
2023/01/24 07:20:43;;;;;;;17.27;12.45;;;2.60;99.90;;;;;;5042232;28;20052;-58
2023/01/24 07:23:23;;;;;;;16.42;12.45;;;2.60;99.90;;;;;;5039566;28;20040;-57
2023/01/24 07:25:50;;;;;;;14.95;11.38;;;2.60;99.90;;;;;;5051490;28;20147;-59
2023/01/24 07:28:16;;;;;;;14.13;10.68;;;2.60;99.90;;;;;;5047547;28;20040;-57
2023/01/24 07:30:41;;;;;;;19.40;12.23;;;2.60;99.90;;;;;;5049634;28;20045;-56
2023/01/24 07:33:07;;;;;;;17.30;12.70;;;2.60;99.90;;;;;;5047191;28;20052;-60
2023/01/24 07:35:32;;;;;;;19.73;14.10;;;2.60;99.90;;;;;;5047840;28;20469;-61
2023/01/24 07:37:59;;;;;;;16.57;12.10;;;2.60;99.90;;;;;;5048839;28;20110;-60
2023/01/24 07:40:25;;;;;;;18.95;12.13;;;2.60;99.90;;;;;;5050415;28;20060;-59
2023/01/24 07:42:51;;;;;;;17.73;11.77;;;2.60;99.90;;;;;;5049666;28;20213;-63
2023/01/24 07:45:16;;;;;;;15.63;12.40;;;2.60;99.90;;;;;;5049801;28;20523;-61
2023/01/24 07:47:42;;;;;;;16.03;12.53;;;2.60;99.90;;;;;;5045684;28;20040;-60
2023/01/24 07:50:08;;;;;;;21.73;13.20;;;2.60;99.90;;;;;;5046322;28;20044;-56
2023/01/24 07:52:33;;;;;;;18.65;12.77;;;2.50;99.90;;;;;;5046594;28;20045;-57
2023/01/24 07:54:59;;;;;;;18.87;13.83;;;2.60;99.90;;;;;;5045948;28;20152;-59
2023/01/24 07:57:25;;;;;;;22.50;14.17;;;2.60;99.90;;;;;;5045058;28;20045;-59
2023/01/24 07:59:50;;;;;;;17.53;12.57;;;2.60;99.90;;;;;;5048984;28;20045;-58
2023/01/24 08:02:16;;;;;;;25.70;14.47;;;2.60;99.90;;;;;;5043137;28;20132;-55
2023/01/24 08:04:41;;;;;;;18.17;13.30;;;2.60;99.90;;;;;;5046208;28;20040;-57
2023/01/24 08:07:20;;;;;;;19.37;13.67;;;2.60;99.90;;;;;;5046532;28;20083;-56
2023/01/24 08:09:46;;;;;;;17.67;12.55;;;2.60;99.90;;;;;;5047424;28;20072;-58
2023/01/24 08:12:13;;;;;;;17.42;13.20;;;2.60;99.90;;;;;;5047341;28;20048;-57
2023/01/24 08:14:39;;;;;;;16.33;11.82;;;2.60;99.90;;;;;;5048343;28;20141;-55
2023/01/24 08:17:04;;;;;;;15.98;12.35;;;2.60;99.90;;;;;;5048090;28;20162;-59
2023/01/24 08:19:31;;;;;;;17.47;12.53;;;2.60;99.90;;;;;;5043795;28;20036;-58
2023/01/24 08:21:57;;;;;;;17.73;12.18;;;2.70;99.90;;;;;;5044954;28;20041;-57
2023/01/24 08:24:22;;;;;;;32.27;14.10;;;2.60;99.90;;;;;;5043757;28;20037;-57
2023/01/24 08:26:48;;;;;;;17.03;12.33;;;2.70;99.90;;;;;;5045936;28;20245;-57
2023/01/24 08:29:15;;;;;;;18.15;12.70;;;2.70;99.90;;;;;;5045934;28;20033;-57
2023/01/24 08:31:40;;;;;;;17.83;12.13;;;2.60;99.90;;;;;;5046468;28;20561;-58
2023/01/24 08:34:06;;;;;;;18.73;13.90;;;2.70;99.90;;;;;;5045305;28;20116;-56
2023/01/24 08:36:32;;;;;;;18.13;13.25;;;2.70;99.90;;;;;;5046189;28;20453;-60
2023/01/24 08:38:57;;;;;;;18.80;13.47;;;2.60;99.90;;;;;;5044615;28;20040;-57
2023/01/24 08:41:23;;;;;;;23.47;11.90;;;2.50;99.90;;;;;;5048172;28;20119;-58
2023/01/24 08:43:52;;;;;;;18.80;13.00;;;2.60;99.90;;;;;;5047764;28;20045;-58
2023/01/24 08:46:17;;;;;;;26.75;12.90;;;2.50;99.90;;;;;;5049208;28;20039;-56
2023/01/24 08:48:43;;;;;;;23.27;13.97;;;2.50;99.90;;;;;;5048289;28;20036;-57
2023/01/24 08:51:08;;;;;;;17.93;12.40;;;2.60;99.90;;;;;;5050268;28;20041;-58
2023/01/24 08:53:34;;;;;;;17.77;13.87;;;2.60;99.90;;;;;;5047030;28;20067;-59
2023/01/24 08:56:00;;;;;;;15.90;12.17;;;2.60;99.90;;;;;;5047680;28;20090;-54
2023/01/24 08:58:25;;;;;;;15.03;12.13;;;2.60;99.90;;;;;;5047623;28;20036;-57
2023/01/24 09:00:51;;;;;;;17.50;12.23;;;2.60;99.90;;;;;;5045452;28;20040;-59
2023/01/24 09:03:18;;;;;;;16.67;12.97;;;2.50;99.90;;;;;;5046049;28;20319;-60
2023/01/24 09:05:44;;;;;;;16.48;10.75;;;2.60;99.90;;;;;;5046647;28;20406;-56
2023/01/24 09:08:10;;;;;;;;;;;2.60;99.90;;;;;;5046058;28;20082;-56
2023/01/24 09:10:36;;;;;;;15.40;11.05;;;2.50;99.90;;;;;;5046273;28;20297;-57
2023/01/24 09:13:02;;;;;;;15.93;12.00;;;2.60;99.90;;;;;;5048663;28;20047;-56
2023/01/24 09:15:28;;;;;;;;;;;2.60;99.90;;;;;;5047348;28;20067;-58
2023/01/24 09:17:54;;;;;;;19.20;11.32;;;2.60;99.90;;;;;;5043945;28;20374;-57
2023/01/24 09:20:19;;;;;;;12.93;10.55;;;2.60;99.90;;;;;;5047194;28;20127;-58
2023/01/24 09:22:45;;;;;;;16.27;11.50;;;2.60;99.90;;;;;;5047563;28;20264;-57
2023/01/24 09:25:11;;;;;;;16.23;11.37;;;2.60;99.90;;;;;;5044629;28;20044;-58
2023/01/24 09:27:37;;;;;;;15.05;11.73;;;2.60;99.90;;;;;;5048850;28;20032;-61
2023/01/24 09:30:05;;;;;;;16.25;10.48;;;2.60;99.90;;;;;;5054477;28;20102;-58
2023/01/24 09:32:30;;;;;;;13.70;11.23;;;2.60;99.90;;;;;;5048095;28;20036;-60
2023/01/24 09:34:56;;;;;;;15.87;13.20;;;2.60;99.90;;;;;;5045129;28;20056;-59
2023/01/24 09:37:22;;;;;;;15.17;12.07;;;2.60;99.90;;;;;;5045641;28;20041;-60
2023/01/24 09:39:47;;;;;;;14.25;10.88;;;2.60;99.90;;;;;;5045857;28;20036;-60
2023/01/24 09:42:15;;;;;;;14.40;11.52;;;2.60;99.90;;;;;;5045555;28;20064;-59
2023/01/24 09:45:02;;;;;;;16.00;11.90;;;2.60;99.90;;;;;;5045828;28;20351;-59
2023/01/24 09:47:40;;;;;;;14.90;11.23;;;2.50;99.90;;;;;;5045773;28;20056;-59
2023/01/24 09:50:14;;;;;;;14.48;11.75;;;2.50;99.90;;;;;;5046109;28;20270;-59
2023/01/24 09:52:43;;;;;;;15.63;11.25;;;2.50;99.90;;;;;;5045162;28;20124;-58
2023/01/24 09:55:25;;;;;;;14.98;11.77;;;2.50;99.90;;;;;;5042529;28;20051;-61
2023/01/24 09:58:31;;;;;;;17.92;11.98;;;2.50;99.90;;;;;;5046545;28;20037;-59
2023/01/24 10:01:05;;;;;;;16.40;11.65;;;2.40;99.90;;;;;;5062287;28;20045;-59
2023/01/24 10:03:32;;;;;;;18.45;12.85;;;2.50;99.90;;;;;;5042992;28;20040;-59
2023/01/24 10:06:16;;;;;;;14.60;11.60;;;2.50;99.90;;;;;;5042573;28;20063;-58
2023/01/24 10:08:57;;;;;;;18.48;12.80;;;2.50;99.90;;;;;;5044500;28;20029;-60
2023/01/24 10:11:31;;;;;;;17.33;12.30;;;2.50;99.90;;;;;;5046157;28;20053;-59
2023/01/24 10:14:02;;;;;;;13.45;11.73;;;2.50;99.90;;;;;;5044295;28;20416;-58
2023/01/24 10:16:43;;;;;;;15.88;11.73;;;2.50;99.90;;;;;;5044296;28;20255;-60
2023/01/24 10:19:23;;;;;;;14.35;10.82;;;2.50;99.90;;;;;;5045351;28;20037;-58
2023/01/24 10:21:52;;;;;;;14.82;11.63;;;2.50;99.90;;;;;;5045608;28;20903;-59
2023/01/24 10:24:22;;;;;;;15.35;12.00;;;2.60;99.90;;;;;;5044604;28;20128;-59
2023/01/24 10:26:50;;;;;;;18.15;13.18;;;2.50;99.90;;;;;;5048077;28;20036;-58
2023/01/24 10:29:21;;;;;;;15.57;12.65;;;2.60;99.90;;;;;;5050751;28;20375;-60
2023/01/24 10:31:58;;;;;;;16.17;12.35;;;2.60;99.90;;;;;;5049114;28;20037;-58
2023/01/24 10:34:37;;;;;;;18.00;12.20;;;2.70;99.90;;;;;;5046291;28;20414;-60
2023/01/24 10:37:17;;;;;;;14.98;10.98;;;2.70;99.90;;;;;;5047541;28;20041;-57
2023/01/24 10:39:43;;;;;;;15.50;11.18;;;2.70;99.90;;;;;;5050916;28;20037;-57
2023/01/24 10:42:19;;;;;;;16.97;12.47;;;2.70;99.90;;;;;;5048869;28;20064;-57
2023/01/24 10:44:47;;;;;;;13.60;11.13;;;2.70;99.90;;;;;;5049085;28;20032;-57
2023/01/24 10:47:38;;;;;;;16.40;12.57;;;2.80;99.90;;;;;;5050029;28;20209;-58
2023/01/24 10:50:09;;;;;;;15.70;11.20;;;2.80;99.90;;;;;;5050464;28;20044;-58
2023/01/24 10:52:35;;;;;;;13.48;11.27;;;2.80;99.90;;;;;;5049277;28;20082;-60
2023/01/24 10:55:02;;;;;;;19.30;11.73;;;2.70;99.90;;;;;;5048106;28;20037;-59
2023/01/24 10:57:49;;;;;;;13.18;10.80;;;2.70;99.90;;;;;;5046551;28;20041;-60
2023/01/24 11:00:22;;;;;;;15.23;10.98;;;2.70;99.90;;;;;;5048452;28;20041;-57
2023/01/24 11:02:50;;;;;;;13.23;10.60;;;2.70;99.90;;;;;;5035077;28;20421;-59
2023/01/24 11:05:18;;;;;;;14.13;11.23;;;2.70;99.90;;;;;;5046293;28;20040;-58
2023/01/24 11:07:52;;;;;;;13.27;10.95;;;2.70;99.90;;;;;;5045704;28;20048;-59
2023/01/24 11:10:21;;;;;;;12.88;10.57;;;2.70;99.90;;;;;;5045276;28;20044;-59
2023/01/24 11:12:58;;;;;;;13.05;10.52;;;2.70;99.90;;;;;;5046277;28;20049;-60
2023/01/24 11:15:33;;;;;;;15.57;11.38;;;2.70;99.90;;;;;;5047016;28;20060;-59
2023/01/24 11:18:06;;;;;;;15.13;11.52;;;2.70;99.90;;;;;;5048384;28;20041;-57
2023/01/24 11:20:34;;;;;;;14.13;12.10;;;2.70;99.90;;;;;;5047514;28;20056;-58
2023/01/24 11:23:17;;;;;;;17.80;12.73;;;2.70;99.90;;;;;;5046094;28;20029;-59
2023/01/24 11:25:54;;;;;;;14.05;11.43;;;2.70;99.90;;;;;;5047309;28;20433;-60
2023/01/24 11:28:24;;;;;;;14.60;10.73;;;2.70;99.90;;;;;;5048020;28;20040;-58
2023/01/24 11:30:50;;;;;;;15.95;12.10;;;2.70;99.90;;;;;;5047532;28;20049;-59
2023/01/24 11:33:59;;;;;;;15.18;11.73;;;2.70;99.90;;;;;;5046289;28;21160;-59
2023/01/24 11:36:44;;;;;;;13.88;11.27;;;2.70;99.90;;;;;;5008070;28;20037;-59
2023/01/24 11:39:13;;;;;;;14.80;11.93;;;2.70;99.90;;;;;;5005261;28;20041;-57
2023/01/24 11:41:53;;;;;;;15.95;13.13;;;2.70;99.90;;;;;;5005575;28;20042;-60
2023/01/24 11:44:25;;;;;;;15.13;12.50;;;2.70;99.90;;;;;;5003760;28;20054;-60
2023/01/24 11:46:56;;;;;;;12.23;9.52;;;2.80;99.90;;;;;;5007149;28;20157;-59
2023/01/24 11:49:39;;;;;;;12.93;10.18;;;2.80;99.90;;;;;;5008085;28;20050;-58
2023/01/24 11:52:39;;;;;;;12.73;9.85;;;2.80;99.90;;;;;;5005979;28;20061;-59
2023/01/24 11:55:14;;;;;;;13.00;10.45;;;2.80;99.90;;;;;;5004183;28;20176;-57
2023/01/24 11:57:39;;;;;;;12.60;10.30;;;2.90;99.90;;;;;;5006678;28;20054;-59
2023/01/24 12:00:32;;;;;;;13.90;10.53;;;2.90;99.90;;;;;;5006827;28;20271;-57
2023/01/24 12:03:22;;;;;;;13.32;10.30;;;2.90;99.90;;;;;;4999467;28;20049;-58
2023/01/24 12:06:11;;;;;;;10.63;9.10;;;3.00;99.90;;;;;;5008902;28;20046;-59
2023/01/24 12:08:43;;;;;;;11.95;10.23;;;3.00;99.90;;;;;;4992872;28;20117;-59
2023/01/24 12:11:09;;;;;;;13.65;9.45;;;3.00;99.90;;;;;;5037649;28;20095;-57
2023/01/24 12:13:53;;;;;;;12.73;10.77;;;3.00;99.90;;;;;;5048980;28;20409;-58
2023/01/24 12:16:24;;;;;;;13.85;11.10;;;3.00;99.90;;;;;;5049720;28;20037;-59
2023/01/24 12:19:12;;;;;;;12.88;10.88;;;3.00;99.90;;;;;;5050521;28;20045;-60
2023/01/24 12:21:38;;;;;;;16.00;12.43;;;3.00;99.90;;;;;;5052121;28;20053;-57
2023/01/24 12:24:11;;;;;;;12.63;10.68;;;2.90;99.90;;;;;;5051639;28;20116;-58
2023/01/24 12:26:45;;;;;;;12.40;10.40;;;2.80;99.90;;;;;;5050772;28;20401;-58
2023/01/24 12:29:38;;;;;;;12.48;9.85;;;2.80;99.90;;;;;;5051187;28;20041;-58
2023/01/24 12:32:25;;;;;;;13.85;10.93;;;2.80;99.90;;;;;;5054094;28;20072;-57
2023/01/24 12:34:57;;;;;;;15.60;11.52;;;2.80;99.90;;;;;;5052120;28;20048;-55
2023/01/24 12:37:27;;;;;;;12.45;10.63;;;2.80;99.90;;;;;;5051360;28;20041;-58
2023/01/24 12:39:55;;;;;;;15.95;11.15;;;2.80;99.90;;;;;;5053550;28;20048;-59
2023/01/24 12:43:00;;;;;;;13.48;10.25;;;2.80;99.90;;;;;;5048094;28;20113;-57
2023/01/24 12:45:52;;;;;;;11.82;9.27;;;2.80;99.90;;;;;;5034294;28;20128;-59
2023/01/24 12:48:32;;;;;;;12.75;10.35;;;2.80;99.90;;;;;;5049526;28;20122;-59
2023/01/24 12:51:12;;;;;;;11.43;9.48;;;2.80;99.90;;;;;;5051257;28;20036;-59
2023/01/24 12:53:58;;;;;;;13.95;10.35;;;2.80;99.90;;;;;;5048803;28;20321;-58
2023/01/24 12:56:25;;;;;;;12.18;10.32;;;2.90;99.90;;;;;;5049726;28;20405;-56
2023/01/24 12:58:52;;;;;;;13.73;10.73;;;2.90;99.90;;;;;;5051753;28;20036;-60
2023/01/24 13:01:25;;;;;;;12.45;9.55;;;2.90;99.90;;;;;;5050417;28;20037;-60
2023/01/24 13:04:11;;;;;;;13.85;10.85;;;2.90;99.90;;;;;;5052465;28;20032;-57
2023/01/24 13:06:43;;;;;;;12.48;9.32;;;2.90;99.90;;;;;;5048939;28;20056;-57
2023/01/24 13:09:38;;;;;;;15.60;11.10;;;2.90;99.90;;;;;;5050286;28;20037;-60
2023/01/24 13:12:10;;;;;;;11.60;9.52;;;2.90;99.90;;;;;;5052707;28;20044;-58
2023/01/24 13:14:52;;;;;;;15.15;10.80;;;2.90;99.90;;;;;;5048701;28;20427;-57
2023/01/24 13:17:39;;;;;;;13.50;10.02;;;2.90;99.90;;;;;;5047351;28;20099;-57
2023/01/24 13:20:21;;;;;;;;;;;2.90;99.90;;;;;;5053464;28;20068;-59
2023/01/24 13:23:03;;;;;;;14.15;10.27;;;2.80;99.90;;;;;;5049391;28;20271;-58
2023/01/24 13:26:07;;;;;;;12.65;10.05;;;2.90;99.90;;;;;;5049607;28;20087;-57
2023/01/24 13:28:45;;;;;;;12.07;10.40;;;2.90;99.90;;;;;;5051348;28;20037;-59
2023/01/24 13:31:33;;;;;;;15.02;10.77;;;2.90;99.90;;;;;;5048068;28;20037;-59
2023/01/24 13:34:02;;;;;;;;;;;2.90;99.90;;;;;;5050753;28;20036;-61